Time;durP1;ratioP1;P1;durP2;ratioP2;P2;SDS_P1;SDS_P2;PMS_P1;PMS_P2;Temp;Humidity;BMP_temperature;BMP_pressure;BME280_temperature;BME280_humidity;BME280_pressure;Samples;Min_cycle;Max_cycle;Signal;HPM_P1;HPM_P2
2021/08/29 00:01:04;;;;;;;7.60;3.20;;;;;;;21.63;56.41;102318.63;4938455;29;20054;-73
2021/08/29 00:03:29;;;;;;;5.15;3.58;;;;;;;21.67;56.27;102334.47;4922283;29;20108;-73
2021/08/29 00:05:55;;;;;;;4.65;2.90;;;;;;;21.63;56.41;102316.88;4938063;29;20031;-73
2021/08/29 00:08:20;;;;;;;3.97;2.78;;;;;;;21.67;56.35;102323.94;4937996;29;20043;-72
2021/08/29 00:10:45;;;;;;;5.30;2.88;;;;;;;21.67;56.27;102320.41;4922276;29;20067;-74
2021/08/29 00:13:11;;;;;;;4.43;2.78;;;;;;;21.64;56.22;102316.00;4938743;29;20036;-74
2021/08/29 00:15:38;;;;;;;7.00;3.08;;;;;;;21.65;56.18;102316.88;4937666;29;20062;-73
2021/08/29 00:18:04;;;;;;;3.42;2.85;;;;;;;21.64;56.30;102312.50;4922275;29;20086;-74
2021/08/29 00:20:29;;;;;;;5.05;3.42;;;;;;;21.63;56.22;102308.97;4922339;29;20031;-73
2021/08/29 00:22:54;;;;;;;7.30;4.55;;;;;;;21.67;56.07;102313.41;4937843;29;20039;-73
2021/08/29 00:25:20;;;;;;;6.07;2.65;;;;;;;21.63;56.30;102308.97;4937829;29;20518;-73
2021/08/29 00:27:45;;;;;;;3.90;2.95;;;;;;;21.64;56.30;102305.47;4921816;29;20043;-74
2021/08/29 00:30:11;;;;;;;4.97;2.92;;;;;;;21.60;56.18;102306.31;4906309;29;20039;-74
2021/08/29 00:32:36;;;;;;;4.07;2.30;;;;;;;21.63;56.33;102316.00;4937884;29;20409;-75
2021/08/29 00:35:02;;;;;;;3.55;2.53;;;;;;;21.51;56.21;102290.47;4906000;29;20474;-73
2021/08/29 00:37:28;;;;;;;3.97;2.75;;;;;;;21.62;56.36;102307.22;4938752;29;20019;-72
2021/08/29 00:39:53;;;;;;;3.22;2.25;;;;;;;21.65;56.34;102301.97;4922016;29;20036;-73
2021/08/29 00:42:18;;;;;;;3.92;2.60;;;;;;;21.65;56.11;102301.09;4937384;29;20046;-73
2021/08/29 00:44:44;;;;;;;5.13;2.83;;;;;;;21.63;56.48;102308.97;4937511;29;20038;-74
2021/08/29 00:47:09;;;;;;;4.45;3.05;;;;;;;21.65;56.31;102308.97;4921387;29;20038;-73
2021/08/29 00:49:41;;;;;;;5.28;3.70;;;;;;;21.64;56.18;102316.00;4937256;29;20034;-72
2021/08/29 00:52:08;;;;;;;3.90;2.15;;;;;;;21.60;56.28;102305.44;4921613;29;20023;-74
2021/08/29 00:54:35;;;;;;;3.13;2.42;;;;;;;21.65;56.25;102311.63;4936594;29;20042;-73
2021/08/29 00:57:03;;;;;;;3.10;2.50;;;;;;;21.65;56.16;102311.63;4938408;29;20039;-73
2021/08/29 00:59:29;;;;;;;4.72;2.80;;;;;;;21.63;56.05;102308.09;4921521;29;20050;-73
2021/08/29 01:02:01;;;;;;;4.70;3.05;;;;;;;21.62;56.05;102311.59;4936704;29;20504;-73
2021/08/29 01:04:34;;;;;;;5.47;2.97;;;;;;;21.65;55.92;102311.63;4936902;29;20027;-73
2021/08/29 01:07:24;;;;;;;4.38;2.58;;;;;;;21.64;56.13;102312.50;4937036;29;20038;-73
2021/08/29 01:10:01;;;;;;;3.47;2.35;;;;;;;21.63;55.93;102308.97;4937151;29;20035;-73
2021/08/29 01:12:28;;;;;;;2.80;2.33;;;;;;;21.63;55.93;102311.59;4936852;29;20079;-73
2021/08/29 01:14:55;;;;;;;3.83;2.75;;;;;;;21.60;55.81;102300.16;4936879;29;20494;-79
2021/08/29 01:17:25;;;;;;;2.92;2.15;;;;;;;21.63;55.92;102305.47;4941255;29;20035;-81
2021/08/29 01:20:18;;;;;;;4.18;2.83;;;;;;;21.63;55.92;102308.97;4938409;29;20114;-75
2021/08/29 01:22:45;;;;;;;3.53;2.65;;;;;;;21.62;55.97;102307.22;4894932;29;20040;-73
2021/08/29 01:25:16;;;;;;;3.95;2.40;;;;;;;21.62;55.94;102301.94;4921236;29;20024;-74
2021/08/29 01:28:15;;;;;;;3.45;2.67;;;;;;;21.63;55.93;102293.19;4936628;29;20023;-74
2021/08/29 01:30:45;;;;;;;3.58;2.25;;;;;;;21.60;55.96;102287.88;4930853;29;20055;-74
2021/08/29 01:33:13;;;;;;;3.42;2.58;;;;;;;21.63;55.85;102300.19;4937372;29;20517;-74
2021/08/29 01:35:40;;;;;;;4.40;3.20;;;;;;;21.63;55.65;102302.81;4938556;29;20446;-74
2021/08/29 01:38:07;;;;;;;4.85;3.05;;;;;;;21.56;55.77;102286.09;4936903;29;20027;-74
2021/08/29 01:40:34;;;;;;;3.78;2.70;;;;;;;21.61;55.61;102299.31;4936986;29;20027;-74
2021/08/29 01:43:00;;;;;;;3.97;2.85;;;;;;;21.53;56.17;102290.50;4937741;29;20055;-74
2021/08/29 01:45:27;;;;;;;3.97;2.70;;;;;;;21.60;55.88;102302.81;4937657;29;20028;-73
2021/08/29 01:47:55;;;;;;;3.22;2.20;;;;;;;21.57;55.75;102289.63;4936311;29;20032;-73
2021/08/29 01:50:21;;;;;;;5.10;2.22;;;;;;;21.56;55.82;102290.50;4936356;29;20035;-73
2021/08/29 01:52:46;;;;;;;3.38;2.42;;;;;;;21.55;55.92;102291.38;4936758;29;20028;-74
2021/08/29 01:55:12;;;;;;;3.05;2.30;;;;;;;21.60;55.83;102294.91;4920754;29;20176;-72
2021/08/29 01:57:37;;;;;;;4.20;2.72;;;;;;;21.61;55.58;102300.19;4920453;29;20032;-72
2021/08/29 02:00:03;;;;;;;3.70;2.67;;;;;;;21.58;55.69;102289.63;4937618;29;20039;-73
2021/08/29 02:02:29;;;;;;;3.63;2.25;;;;;;;21.60;55.63;102302.81;4937401;29;20505;-73
2021/08/29 02:04:55;;;;;;;5.88;1.95;;;;;;;21.59;55.58;102299.28;4937132;29;20032;-73
2021/08/29 02:07:29;;;;;;;4.07;2.63;;;;;;;21.61;55.71;102294.91;4919792;29;20554;-73
2021/08/29 02:10:07;;;;;;;4.13;2.92;;;;;;;21.56;55.73;102301.00;4936162;29;20028;-73
2021/08/29 02:12:39;;;;;;;2.50;1.92;;;;;;;21.61;55.79;102300.19;4937052;29;20553;-73
2021/08/29 02:15:15;;;;;;;2.57;1.87;;;;;;;21.62;55.59;102306.31;4936927;29;20052;-73
2021/08/29 02:17:41;;;;;;;4.20;2.88;;;;;;;21.59;55.69;102301.03;4936948;29;20024;-72
2021/08/29 02:20:16;;;;;;;3.70;2.20;;;;;;;21.61;55.72;102299.31;4888516;29;20509;-73
2021/08/29 02:22:42;;;;;;;3.72;2.28;;;;;;;21.61;55.48;102301.94;4919774;29;20037;-73
2021/08/29 02:25:08;;;;;;;4.80;2.80;;;;;;;21.60;55.56;102305.44;4936778;29;20028;-72
2021/08/29 02:27:35;;;;;;;3.67;2.75;;;;;;;21.61;55.46;102301.94;4903842;29;20123;-74
2021/08/29 02:30:01;;;;;;;4.18;2.60;;;;;;;21.61;55.50;102304.56;4904260;29;20027;-74
2021/08/29 02:32:28;;;;;;;3.60;2.35;;;;;;;21.60;55.44;102295.78;4919965;29;20463;-73
2021/08/29 02:34:54;;;;;;;4.45;2.95;;;;;;;21.59;55.58;102298.41;4936495;29;20051;-73
2021/08/29 02:37:21;;;;;;;2.75;2.30;;;;;;;21.61;55.55;102300.19;4936661;29;20038;-73
2021/08/29 02:39:46;;;;;;;3.60;2.38;;;;;;;21.58;55.63;102294.91;4903678;29;20032;-74
2021/08/29 02:42:12;;;;;;;3.60;2.88;;;;;;;21.58;55.37;102291.38;4919480;29;20042;-74
2021/08/29 02:44:40;;;;;;;3.42;2.55;;;;;;;21.58;55.56;102294.91;4904180;29;20028;-74
2021/08/29 02:47:07;;;;;;;3.22;2.42;;;;;;;21.56;55.54;102295.75;4936430;29;20032;-74
2021/08/29 02:49:34;;;;;;;3.25;2.42;;;;;;;21.59;55.24;102294.03;4903877;29;20557;-74
2021/08/29 02:52:00;;;;;;;4.75;2.45;;;;;;;21.54;55.50;102281.72;4936591;29;20035;-72
2021/08/29 02:54:28;;;;;;;4.00;2.47;;;;;;;21.61;55.54;102294.03;4919288;29;20038;-73
2021/08/29 02:56:55;;;;;;;3.80;2.45;;;;;;;21.60;55.41;102287.88;4919251;29;20067;-73
2021/08/29 02:59:21;;;;;;;2.70;2.35;;;;;;;21.58;55.39;102283.47;4903636;29;20038;-73
2021/08/29 03:01:46;;;;;;;3.20;2.22;;;;;;;21.62;55.40;102274.75;4937195;29;20119;-73
2021/08/29 03:04:12;;;;;;;4.10;2.42;;;;;;;21.61;55.41;102283.50;4922160;29;20114;-73
2021/08/29 03:06:38;;;;;;;2.72;2.13;;;;;;;21.56;55.46;102270.31;4905154;29;20032;-73
2021/08/29 03:09:04;;;;;;;2.75;2.00;;;;;;;21.60;55.46;102274.72;4919809;29;20387;-72
2021/08/29 03:11:30;;;;;;;4.32;2.33;;;;;;;21.61;55.32;102271.22;4936481;29;20474;-73
2021/08/29 03:13:56;;;;;;;2.90;2.00;;;;;;;21.59;55.51;102266.81;4919451;29;20043;-73
2021/08/29 03:16:22;;;;;;;3.70;2.53;;;;;;;21.59;55.49;102269.44;4918822;29;20450;-73
2021/08/29 03:18:48;;;;;;;3.15;2.50;;;;;;;21.60;55.59;102266.81;4921430;29;20043;-73
2021/08/29 03:21:14;;;;;;;3.80;2.42;;;;;;;21.56;55.62;102265.03;4940544;29;20406;-74
2021/08/29 03:23:40;;;;;;;2.90;2.60;;;;;;;21.61;55.35;102272.97;4938971;29;20040;-73
2021/08/29 03:26:05;;;;;;;3.53;2.55;;;;;;;21.59;55.55;102269.44;4923032;29;20035;-73
2021/08/29 03:28:31;;;;;;;5.25;3.03;;;;;;;21.60;55.35;102273.84;4923025;29;20035;-73
2021/08/29 03:30:56;;;;;;;3.28;2.17;;;;;;;21.56;55.33;102270.31;4940078;29;20028;-73
2021/08/29 03:33:23;;;;;;;3.58;2.35;;;;;;;21.57;55.53;102261.53;4907613;29;20062;-73
2021/08/29 03:35:52;;;;;;;2.70;2.03;;;;;;;21.60;55.55;102263.31;4938948;29;20036;-73
2021/08/29 03:38:20;;;;;;;3.22;2.50;;;;;;;21.58;55.44;102265.06;4938632;29;20028;-73
2021/08/29 03:40:46;;;;;;;3.13;2.35;;;;;;;21.59;55.40;102267.69;4938677;29;20056;-73
2021/08/29 03:43:14;;;;;;;4.43;2.42;;;;;;;21.57;55.51;102256.28;4939915;29;20036;-73
2021/08/29 03:45:40;;;;;;;3.30;2.30;;;;;;;21.59;55.32;102262.44;4939145;29;20128;-74
2021/08/29 03:48:06;;;;;;;3.13;2.22;;;;;;;21.58;55.49;102255.41;4939721;29;20378;-73
2021/08/29 03:50:31;;;;;;;3.17;2.22;;;;;;;21.54;55.42;102248.41;4938497;29;20087;-73
2021/08/29 03:52:57;;;;;;;2.65;2.15;;;;;;;21.57;55.33;102256.28;4907360;29;20028;-73
2021/08/29 03:55:23;;;;;;;3.13;1.98;;;;;;;21.57;55.45;102253.66;4907128;29;20038;-72
2021/08/29 03:57:50;;;;;;;3.20;1.98;;;;;;;21.58;55.33;102247.50;4922758;29;20553;-72
2021/08/29 04:00:16;;;;;;;2.47;1.95;;;;;;;21.54;55.51;102240.50;4938163;29;20387;-73
2021/08/29 04:02:42;;;;;;;3.72;2.30;;;;;;;21.59;55.46;102253.66;4938145;29;20033;-73
2021/08/29 04:05:08;;;;;;;2.95;2.00;;;;;;;21.59;55.35;102248.41;4938299;29;20372;-74
2021/08/29 04:07:34;;;;;;;4.50;2.03;;;;;;;21.57;55.34;102234.34;4939120;29;20032;-74
2021/08/29 04:10:02;;;;;;;3.47;2.25;;;;;;;21.56;55.37;102241.34;4938108;29;20047;-73
2021/08/29 04:12:29;;;;;;;2.13;1.67;;;;;;;21.55;55.38;102239.59;4937970;29;20087;-73
2021/08/29 04:14:57;;;;;;;4.15;2.75;;;;;;;21.55;55.40;102238.75;4937670;29;20506;-73
2021/08/29 04:17:24;;;;;;;3.53;2.17;;;;;;;21.52;55.29;102238.72;4937873;29;20131;-72
2021/08/29 04:19:50;;;;;;;3.75;2.10;;;;;;;21.57;55.20;102252.75;4937988;29;20063;-72
2021/08/29 04:22:16;;;;;;;4.25;2.67;;;;;;;21.58;55.42;102257.16;4939011;29;20035;-73
2021/08/29 04:24:41;;;;;;;3.40;1.58;;;;;;;21.59;55.24;102257.16;4922149;29;20470;-72
2021/08/29 04:27:07;;;;;;;5.38;2.40;;;;;;;21.52;55.36;102238.72;4937693;29;20035;-73
2021/08/29 04:29:34;;;;;;;3.25;2.08;;;;;;;21.56;55.25;102244.00;4938624;29;20028;-74
2021/08/29 04:32:02;;;;;;;2.90;1.90;;;;;;;21.56;55.27;102240.47;4906141;29;20478;-73
2021/08/29 04:34:27;;;;;;;3.90;2.33;;;;;;;21.57;55.25;102239.59;4937634;29;20119;-72
2021/08/29 04:36:52;;;;;;;4.35;2.10;;;;;;;21.54;55.20;102236.97;4937440;29;20046;-72
2021/08/29 04:39:18;;;;;;;2.90;2.10;;;;;;;21.58;55.35;102239.63;4921593;29;20035;-73
2021/08/29 04:41:43;;;;;;;3.50;2.08;;;;;;;21.55;55.38;102234.31;4938718;29;20044;-73
2021/08/29 04:44:11;;;;;;;3.50;2.20;;;;;;;21.53;55.46;102222.94;4921638;29;20043;-74
2021/08/29 04:46:37;;;;;;;3.67;2.25;;;;;;;21.56;55.10;102237.84;4922825;29;20043;-74
2021/08/29 04:49:03;;;;;;;2.95;2.15;;;;;;;21.58;55.28;102231.72;4941928;29;20493;-74
2021/08/29 04:51:29;;;;;;;4.50;3.03;;;;;;;21.58;55.35;102247.50;4938252;29;20036;-73
2021/08/29 04:53:55;;;;;;;5.00;2.67;;;;;;;21.57;55.26;102245.75;4938991;29;20028;-72
2021/08/29 04:56:20;;;;;;;3.53;2.30;;;;;;;21.52;55.20;102247.50;4937658;29;20508;-72
2021/08/29 04:58:46;;;;;;;4.18;2.25;;;;;;;21.57;55.10;102244.88;4906055;29;20083;-72
2021/08/29 05:01:11;;;;;;;2.83;2.00;;;;;;;21.58;55.20;102257.16;4921818;29;20040;-73
2021/08/29 05:03:37;;;;;;;3.63;2.40;;;;;;;21.52;55.01;102247.50;4906046;29;20036;-73
2021/08/29 05:06:02;;;;;;;5.40;2.33;;;;;;;21.58;55.13;102255.41;4937579;29;20036;-73
2021/08/29 05:08:27;;;;;;;3.13;2.13;;;;;;;21.53;55.21;102249.25;4938593;29;20032;-73
2021/08/29 05:10:53;;;;;;;4.18;2.67;;;;;;;21.57;55.18;102255.41;4937879;29;20035;-73
2021/08/29 05:13:18;;;;;;;3.78;1.90;;;;;;;21.52;55.29;102242.25;4937172;29;20094;-72
2021/08/29 05:15:44;;;;;;;5.43;2.20;;;;;;;21.58;55.20;102254.53;4938046;29;20059;-73
2021/08/29 05:18:09;;;;;;;3.97;1.90;;;;;;;21.58;55.08;102258.03;4938102;29;20027;-73
2021/08/29 05:20:35;;;;;;;2.95;2.50;;;;;;;21.57;55.29;102258.91;4921030;29;20114;-73
2021/08/29 05:23:00;;;;;;;3.95;2.20;;;;;;;21.58;55.03;102259.78;4905952;29;20488;-74
2021/08/29 05:25:26;;;;;;;2.88;1.85;;;;;;;21.54;55.20;102255.41;4921020;29;20486;-73
2021/08/29 05:27:51;;;;;;;3.67;2.15;;;;;;;21.57;55.42;102255.41;4905691;29;20088;-72
2021/08/29 05:30:16;;;;;;;3.70;2.45;;;;;;;21.52;55.22;102249.25;4905477;29;20048;-72
2021/08/29 05:32:42;;;;;;;4.50;2.25;;;;;;;21.57;55.25;102248.38;4905903;29;20027;-74
2021/08/29 05:35:07;;;;;;;3.60;2.08;;;;;;;21.55;55.13;102247.50;4923402;29;20067;-75
2021/08/29 05:37:33;;;;;;;4.75;1.90;;;;;;;21.60;54.72;102258.06;4907935;29;20027;-77
2021/08/29 05:39:58;;;;;;;2.67;1.58;;;;;;;21.61;55.28;102263.31;4923174;29;20091;-75
2021/08/29 05:42:23;;;;;;;2.95;1.80;;;;;;;21.56;55.23;102251.88;4939704;29;20139;-74
2021/08/29 05:44:49;;;;;;;6.28;3.33;;;;;;;21.56;55.19;102246.63;4907247;29;20028;-74
2021/08/29 05:47:14;;;;;;;2.97;2.40;;;;;;;21.58;54.98;102242.25;4907000;29;20031;-74
2021/08/29 05:49:40;;;;;;;4.00;2.40;;;;;;;21.62;55.14;102251.03;4905314;29;20035;-75
2021/08/29 05:52:06;;;;;;;3.97;2.78;;;;;;;21.60;55.34;102244.88;4905635;29;20035;-74
2021/08/29 05:54:31;;;;;;;4.65;2.47;;;;;;;21.61;55.08;102250.16;4922026;29;20044;-74
2021/08/29 05:56:57;;;;;;;4.13;2.13;;;;;;;21.61;55.13;102250.16;4922027;29;20035;-74
2021/08/29 05:59:22;;;;;;;5.63;3.33;;;;;;;21.61;55.32;102244.91;4939229;29;20051;-74
2021/08/29 06:01:48;;;;;;;5.53;2.33;;;;;;;21.58;54.11;102252.78;4890547;29;20084;-74
2021/08/29 06:04:13;;;;;;;4.78;2.22;;;;;;;21.55;53.77;102246.66;4905963;29;20179;-73
2021/08/29 06:06:38;;;;;;;6.90;2.80;;;;;;;21.50;53.56;102238.72;4905774;29;20038;-74
2021/08/29 06:09:04;;;;;;;8.48;2.70;;;;;;;21.34;53.58;102252.66;4905455;29;20134;-74
2021/08/29 06:11:30;;;;;;;5.38;2.47;;;;;;;21.08;53.25;102243.69;4921002;29;20081;-75
2021/08/29 06:13:58;;;;;;;6.57;3.05;;;;;;;21.08;53.97;102244.56;4921939;29;20103;-75
2021/08/29 06:16:23;;;;;;;6.60;2.75;;;;;;;21.24;53.54;102241.22;4936705;29;20060;-73
2021/08/29 06:18:49;;;;;;;5.30;2.72;;;;;;;21.32;53.53;102250.00;4905065;29;20114;-73
2021/08/29 06:21:14;;;;;;;12.48;3.05;;;;;;;21.31;53.33;102240.34;4938421;29;20023;-75
2021/08/29 06:23:40;;;;;;;8.27;3.13;;;;;;;21.32;53.66;102252.66;4921334;29;20027;-75
2021/08/29 06:26:05;;;;;;;4.35;2.63;;;;;;;21.32;53.78;102238.59;4937405;29;20055;-75
2021/08/29 06:28:31;;;;;;;9.43;3.33;;;;;;;21.28;53.43;102245.63;4921346;29;20371;-76
2021/08/29 06:30:56;;;;;;;9.13;3.00;;;;;;;21.28;53.45;102244.75;4906619;29;20054;-82
2021/08/29 06:33:21;;;;;;;5.75;2.83;;;;;;;21.30;53.51;102237.72;4907703;29;20455;-75
2021/08/29 06:35:47;;;;;;;6.72;3.28;;;;;;;21.27;53.35;102230.72;4939773;29;20087;-73
2021/08/29 06:38:12;;;;;;;6.10;2.90;;;;;;;21.25;53.56;102227.19;4907735;29;20035;-73
2021/08/29 06:40:37;;;;;;;5.70;2.92;;;;;;;21.22;53.49;102236.81;4924813;29;20040;-74
2021/08/29 06:43:03;;;;;;;6.68;2.70;;;;;;;21.24;53.61;102220.16;4923969;29;20293;-76
2021/08/29 06:45:28;;;;;;;5.40;3.00;;;;;;;21.27;53.49;102225.44;4908217;29;20031;-75
2021/08/29 06:47:54;;;;;;;8.57;3.33;;;;;;;21.28;53.41;102227.22;4924003;29;20055;-75
2021/08/29 06:50:19;;;;;;;7.78;2.95;;;;;;;21.30;53.51;102224.56;4923059;29;20106;-75
2021/08/29 06:52:45;;;;;;;5.35;2.55;;;;;;;21.33;53.51;102219.31;4919470;29;20039;-74
2021/08/29 06:55:11;;;;;;;5.10;2.67;;;;;;;21.35;53.49;102221.09;4935471;29;20474;-75
2021/08/29 06:57:36;;;;;;;11.30;3.28;;;;;;;21.33;53.28;102221.94;4921014;29;20032;-76
2021/08/29 07:00:03;;;;;;;9.45;2.95;;;;;;;21.38;53.31;102222.88;4924130;29;20042;-77
2021/08/29 07:02:28;;;;;;;8.98;3.30;;;;;;;21.38;53.29;102217.59;4940232;29;20522;-77
2021/08/29 07:04:54;;;;;;;7.40;3.15;;;;;;;21.36;53.64;102211.44;4938894;29;20130;-76
2021/08/29 07:07:19;;;;;;;6.93;3.22;;;;;;;21.38;53.32;102222.88;4940156;29;20031;-77
2021/08/29 07:09:45;;;;;;;7.50;3.20;;;;;;;21.35;53.37;102220.22;4922133;29;20394;-75
2021/08/29 07:12:11;;;;;;;4.60;2.67;;;;;;;21.38;53.46;102222.88;4939812;29;20032;-76
2021/08/29 07:14:36;;;;;;;7.30;3.78;;;;;;;21.36;53.59;102216.72;4921693;29;20581;-76
2021/08/29 07:17:02;;;;;;;6.63;2.67;;;;;;;21.32;53.47;102207.03;4905443;29;20066;-75
2021/08/29 07:19:28;;;;;;;10.77;2.80;;;;;;;21.35;53.63;102204.41;4937251;29;20031;-76
2021/08/29 07:21:53;;;;;;;7.63;2.85;;;;;;;21.39;53.53;102212.34;4920996;29;20060;-76
2021/08/29 07:24:19;;;;;;;7.50;3.13;;;;;;;21.38;53.52;102205.31;4919889;29;20031;-73
2021/08/29 07:26:44;;;;;;;6.38;3.03;;;;;;;21.35;53.65;102199.16;4919072;29;20042;-73
2021/08/29 07:29:10;;;;;;;8.13;2.85;;;;;;;21.43;53.51;102207.97;4936116;29;20066;-74
2021/08/29 07:31:35;;;;;;;8.32;3.15;;;;;;;21.39;53.57;102209.72;4903304;29;20032;-73
2021/08/29 07:34:01;;;;;;;9.68;3.25;;;;;;;21.37;53.57;102202.69;4903418;29;20110;-73
2021/08/29 07:36:26;;;;;;;9.68;3.80;;;;;;;21.33;53.55;102201.78;4918919;29;20066;-72
2021/08/29 07:38:51;;;;;;;20.08;5.13;;;;;;;21.35;53.69;102214.94;4903563;29;20048;-74
2021/08/29 07:41:17;;;;;;;5.28;2.50;;;;;;;21.32;53.59;102207.03;4919027;29;20480;-74
2021/08/29 07:43:42;;;;;;;5.65;3.10;;;;;;;21.30;53.46;102206.13;4903173;29;20024;-72
2021/08/29 07:46:08;;;;;;;16.55;4.57;;;;;;;21.31;53.58;102207.91;4934751;29;20078;-72
2021/08/29 07:48:34;;;;;;;8.10;3.83;;;;;;;21.25;53.59;102203.50;4918924;29;20144;-73
2021/08/29 07:50:59;;;;;;;7.93;3.17;;;;;;;21.22;53.54;102198.22;4934838;29;20490;-74
2021/08/29 07:53:25;;;;;;;7.18;3.05;;;;;;;21.22;53.52;102200.84;4934972;29;20023;-74
2021/08/29 07:55:50;;;;;;;6.65;3.47;;;;;;;21.27;53.51;102208.78;4935028;29;20029;-74
2021/08/29 07:58:17;;;;;;;11.60;3.38;;;;;;;21.27;53.49;102208.78;4919026;29;20035;-74
2021/08/29 08:00:43;;;;;;;11.38;3.20;;;;;;;21.28;53.84;102214.06;4919025;29;20090;-74
2021/08/29 08:03:08;;;;;;;9.23;3.35;;;;;;;21.22;53.41;102211.38;4934652;29;20028;-74
2021/08/29 08:05:33;;;;;;;7.30;3.70;;;;;;;21.22;53.38;102216.63;4937702;29;20043;-73
2021/08/29 08:07:59;;;;;;;6.07;3.10;;;;;;;21.25;53.34;102203.50;4921973;29;20500;-73
2021/08/29 08:10:26;;;;;;;9.75;3.80;;;;;;;21.15;53.51;102196.41;4937882;29;20038;-74
2021/08/29 08:12:51;;;;;;;9.48;4.07;;;;;;;21.22;53.47;102211.38;4938003;29;20032;-72
2021/08/29 08:15:17;;;;;;;10.38;4.15;;;;;;;21.22;53.56;102206.13;4937957;29;20080;-74
2021/08/29 08:17:42;;;;;;;13.70;4.45;;;;;;;21.29;53.37;102210.53;4941139;29;20487;-75
2021/08/29 08:20:08;;;;;;;9.30;3.53;;;;;;;21.03;53.18;102199.81;4941187;29;20016;-73
2021/08/29 08:22:34;;;;;;;6.53;3.93;;;;;;;21.00;53.43;102215.59;4923169;29;20393;-72
2021/08/29 08:24:59;;;;;;;10.52;4.13;;;;;;;20.81;53.73;102208.44;4922118;29;20036;-73
2021/08/29 08:27:25;;;;;;;9.98;4.13;;;;;;;20.64;54.63;102216.19;4906721;29;20027;-74
2021/08/29 08:29:50;;;;;;;12.15;4.65;;;;;;;20.73;54.12;102211.91;4921877;29;20126;-72
2021/08/29 08:32:15;;;;;;;9.65;3.70;;;;;;;20.78;53.84;102203.16;4937813;29;20066;-72
2021/08/29 08:34:41;;;;;;;;;;;;;;;20.97;53.46;102202.44;4922128;29;20035;-73
2021/08/29 08:37:06;;;;;;;10.10;4.30;;;;;;;21.04;53.40;102201.59;4937778;29;20345;-73
2021/08/29 08:39:32;;;;;;;15.60;4.80;;;;;;;21.21;53.20;102203.47;4937522;29;20486;-72
2021/08/29 08:41:57;;;;;;;12.30;4.50;;;;;;;21.24;53.22;102198.22;4921603;29;20549;-73
2021/08/29 08:44:22;;;;;;;14.07;5.88;;;;;;;21.32;53.25;102207.03;4922020;29;20031;-72
2021/08/29 08:46:50;;;;;;;8.45;4.45;;;;;;;21.29;53.46;102196.53;4906196;29;20067;-69
2021/08/29 08:49:19;;;;;;;15.82;5.30;;;;;;;20.79;53.47;102210.19;4937433;29;20042;-73
2021/08/29 08:51:45;;;;;;;8.63;4.05;;;;;;;20.22;54.73;102215.81;4938047;29;20020;-73
2021/08/29 08:54:14;;;;;;;9.20;3.58;;;;;;;20.11;54.89;102214.84;4922428;29;20037;-74
2021/08/29 08:56:39;;;;;;;14.38;3.72;;;;;;;20.09;54.08;102214.81;4939696;29;20038;-73
2021/08/29 08:59:07;;;;;;;14.60;3.40;;;;;;;20.19;54.02;102214.03;4940031;29;20027;-76
2021/08/29 09:01:32;;;;;;;14.25;5.82;;;;;;;19.95;54.66;102226.91;4938377;29;25092;-73
2021/08/29 09:03:58;;;;;;;14.43;4.35;;;;;;;19.81;55.09;102212.75;4937990;29;20051;-73
2021/08/29 09:06:24;;;;;;;12.80;3.70;;;;;;;19.43;56.17;102223.63;4922683;29;20032;-80
2021/08/29 09:08:49;;;;;;;11.13;4.25;;;;;;;19.59;56.07;102209.00;4922487;29;20086;-76
2021/08/29 09:11:15;;;;;;;14.55;4.70;;;;;;;19.51;56.44;102216.78;4939050;29;20382;-77
2021/08/29 09:13:46;;;;;;;11.98;5.03;;;;;;;20.10;55.12;102221.84;4938277;29;20035;-75
2021/08/29 09:16:13;;;;;;;14.02;4.30;;;;;;;20.41;54.41;102212.50;4936131;29;20142;-72
2021/08/29 09:18:50;;;;;;;10.60;4.85;;;;;;;20.65;53.79;102201.31;4922686;29;20035;-77
2021/08/29 09:21:24;;;;;;;12.93;5.20;;;;;;;20.76;53.55;102210.19;4939475;29;20039;-74
2021/08/29 09:23:50;;;;;;;12.00;4.00;;;;;;;20.81;53.60;102208.44;4938265;29;20400;-74
2021/08/29 09:26:21;;;;;;;5.80;3.20;;;;;;;20.90;53.55;102199.78;4938084;29;19980;-78
2021/08/29 09:28:48;;;;;;;10.90;3.75;;;;;;;20.92;53.52;102209.41;4937677;29;20386;-81
2021/08/29 09:31:14;;;;;;;10.52;3.80;;;;;;;20.88;53.76;102198.88;4922626;29;20482;-78
2021/08/29 09:33:41;;;;;;;13.63;4.15;;;;;;;20.84;53.81;102205.84;4922292;29;20126;-78
2021/08/29 09:36:08;;;;;;;6.80;3.22;;;;;;;20.80;54.23;102217.22;4937676;29;20051;-81
2021/08/29 09:38:39;;;;;;;9.50;4.80;;;;;;;20.87;53.85;102213.78;4922070;29;19966;-79
2021/08/29 09:41:20;;;;;;;10.63;3.95;;;;;;;20.92;53.80;102208.50;4937332;29;20517;-80
2021/08/29 09:43:46;;;;;;;8.40;4.07;;;;;;;20.91;53.73;102202.38;4938591;29;20060;-79
2021/08/29 09:46:11;;;;;;;8.52;3.67;;;;;;;20.99;53.88;102219.09;4922267;29;20040;-76
2021/08/29 09:48:37;;;;;;;15.13;5.30;;;;;;;20.86;53.65;102179.56;4939093;29;20028;-79
2021/08/29 09:51:02;;;;;;;10.18;4.65;;;;;;;21.07;53.79;102207.75;4939740;29;20116;-77
2021/08/29 09:53:42;;;;;;;9.93;3.75;;;;;;;21.02;53.93;102202.47;4939891;29;20036;-75
2021/08/29 09:56:22;;;;;;;7.43;4.05;;;;;;;21.00;54.14;102204.22;4939062;29;20110;-76
2021/08/29 09:58:48;;;;;;;10.82;4.25;;;;;;;21.02;54.03;102198.09;4940992;29;20028;-77
2021/08/29 10:01:15;;;;;;;7.90;4.45;;;;;;;20.99;53.84;102200.69;4938660;29;20051;-74
2021/08/29 10:03:48;;;;;;;13.02;5.03;;;;;;;21.02;54.21;102197.22;4907251;29;20074;-76
2021/08/29 10:06:15;;;;;;;8.32;3.72;;;;;;;21.05;54.14;102208.59;4938948;29;20455;-79
2021/08/29 10:08:51;;;;;;;9.40;4.00;;;;;;;21.05;54.22;102192.81;4938573;29;20035;-79
2021/08/29 10:11:18;;;;;;;10.73;4.50;;;;;;;20.99;54.02;102197.19;4938489;29;20443;-78
2021/08/29 10:13:44;;;;;;;17.75;5.28;;;;;;;21.03;54.08;102188.44;4938439;29;20035;-80
2021/08/29 10:16:10;;;;;;;9.65;3.97;;;;;;;21.02;54.51;102189.31;4921079;29;20523;-75
2021/08/29 10:18:40;;;;;;;10.27;4.80;;;;;;;21.11;54.39;102189.38;4936638;29;20037;-79
2021/08/29 10:21:08;;;;;;;10.40;4.20;;;;;;;21.18;54.41;102188.50;4938358;29;20541;-72
2021/08/29 10:23:33;;;;;;;8.13;4.03;;;;;;;21.24;54.02;102177.19;4921329;29;20105;-72
2021/08/29 10:26:02;;;;;;;11.50;4.82;;;;;;;21.27;54.22;102179.84;4936918;29;20483;-79
2021/08/29 10:28:31;;;;;;;12.30;4.30;;;;;;;21.29;54.15;102168.41;4935496;29;20028;-73
2021/08/29 10:30:59;;;;;;;10.98;4.68;;;;;;;21.31;54.03;102171.94;4938534;29;20032;-74
2021/08/29 10:33:25;;;;;;;9.82;3.83;;;;;;;21.35;54.19;102170.22;4939011;29;20028;-72
2021/08/29 10:35:51;;;;;;;12.20;4.00;;;;;;;21.35;54.60;102171.09;4938329;29;20031;-72
2021/08/29 10:38:21;;;;;;;12.68;3.97;;;;;;;21.40;54.17;102179.03;4922984;29;20042;-73
2021/08/29 10:40:49;;;;;;;9.10;4.20;;;;;;;21.36;54.32;102164.97;4938676;29;20031;-72
2021/08/29 10:43:15;;;;;;;10.50;4.50;;;;;;;21.37;55.23;102165.84;4938665;29;20370;-73
2021/08/29 10:45:41;;;;;;;6.53;3.70;;;;;;;21.32;55.26;102154.41;4937582;29;20431;-73
2021/08/29 10:48:11;;;;;;;6.85;3.40;;;;;;;21.33;54.69;102153.53;4920513;29;20023;-73
2021/08/29 10:50:38;;;;;;;6.85;3.53;;;;;;;21.37;55.03;102165.84;4921243;29;20067;-73
2021/08/29 10:53:30;;;;;;;7.68;3.35;;;;;;;21.39;55.25;102156.22;4921329;29;20027;-73
2021/08/29 10:56:14;;;;;;;8.77;3.88;;;;;;;21.41;55.08;102164.09;4935198;29;20052;-71
2021/08/29 10:58:39;;;;;;;9.35;3.88;;;;;;;21.38;55.11;102165.84;4935467;29;20047;-73
2021/08/29 11:01:05;;;;;;;7.30;3.45;;;;;;;21.39;55.29;102161.47;4921305;29;20062;-75
2021/08/29 11:03:31;;;;;;;7.97;4.50;;;;;;;21.38;55.24;102154.44;4923079;29;20112;-75
2021/08/29 11:05:56;;;;;;;9.52;4.70;;;;;;;21.33;55.29;102151.78;4907445;29;20123;-78
2021/08/29 11:08:28;;;;;;;8.77;4.20;;;;;;;21.41;55.31;102161.47;4923289;29;20063;-78
2021/08/29 11:10:55;;;;;;;8.50;4.05;;;;;;;21.41;55.43;102165.00;4939226;29;20039;-80
2021/08/29 11:13:39;;;;;;;9.27;4.20;;;;;;;21.43;55.82;102159.69;4923569;29;20036;-77
2021/08/29 11:16:13;;;;;;;7.30;3.97;;;;;;;21.45;55.43;102164.09;4922774;29;20056;-76
2021/08/29 11:19:01;;;;;;;11.40;3.95;;;;;;;21.44;55.81;102164.97;4938451;29;20035;-76
2021/08/29 11:21:27;;;;;;;9.10;4.07;;;;;;;21.45;55.35;102160.59;4939520;29;20027;-79
2021/08/29 11:23:52;;;;;;;12.18;5.32;;;;;;;21.45;55.65;102156.22;4939229;29;20028;-77